This is the latest recevied weather packets stored in our database for station/object MB7UUE. If no packets are shown the sender has not sent any weather packets the latest 10 day(s).
| Time | Temp. | Humidity | Pressure | Rain* | Wind** | Luminosity | Snow |
|---|---|---|---|---|---|---|---|
| 1777469720 | 16.11° C | 38% | 1024.5 hPa | 0 mm | - | - | - |
| 1777468579 | 16.11° C | 33% | 1024.6 hPa | 0 mm | - | - | - |
| 1777467440 | 16.11° C | 33% | 1024.5 hPa | 0 mm | - | - | - |
| 1777466299 | 16.11° C | 33% | 1024.6 hPa | 0 mm | - | - | - |
| 1777465160 | 16.11° C | 33% | 1024.7 hPa | 0 mm | - | - | - |
| 1777464019 | 16.11° C | 32% | 1024.8 hPa | 0 mm | - | - | - |
| 1777462880 | 16.11° C | 34% | 1025.1 hPa | 0 mm | - | - | - |
| 1777461741 | 16.11° C | 33% | 1024.9 hPa | 0 mm | - | - | - |
| 1777460600 | 16.11° C | 35% | 1025.1 hPa | 0 mm | - | - | - |
| 1777459460 | 15.56° C | 36% | 1025.1 hPa | 0 mm | - | - | - |
| 1777458319 | 15.56° C | 37% | 1025 hPa | 0 mm | - | - | - |
| 1777457180 | 15.56° C | 36% | 1024.9 hPa | 0 mm | - | - | - |
| 1777456040 | 15.56° C | 39% | 1025.1 hPa | 0 mm | - | - | - |
| 1777454900 | 15° C | 41% | 1024.9 hPa | 0 mm | - | - | - |
| 1777453761 | 15° C | 43% | 1024.9 hPa | 0 mm | - | - | - |
| 1777452619 | 14.44° C | 47% | 1024.8 hPa | 0 mm | - | - | - |
| 1777451480 | 14.44° C | 47% | 1024.8 hPa | 0 mm | - | - | - |
| 1777450339 | 13.89° C | 49% | 1024.5 hPa | 0 mm | - | - | - |
| 1777449200 | 13.89° C | 53% | 1024.4 hPa | 0 mm | - | - | - |
| 1777448061 | 13.33° C | 55% | 1024.3 hPa | 0 mm | - | - | - |
| 1777446920 | 13.33° C | 56% | 1024.3 hPa | 0 mm | - | - | - |
| 1777445781 | 12.78° C | 58% | 1024.3 hPa | 0 mm | - | - | - |
| 1777444639 | 12.22° C | 62% | 1024 hPa | 0 mm | - | - | - |
| 1777443500 | 11.67° C | 67% | 1023.9 hPa | 0 mm | - | - | - |
| 1777442361 | 10.56° C | 71% | 1023.8 hPa | 0 mm | - | - | - |
* Rain latest hour (hover to see other rain measurements)
** Current wind speed in m/s (hover to see current wind gust speed)